Angoon, Alaska
Current Conditions -  °F | °C
As of 8:56 PM on Friday 24 Oct 2014 (Local Time) from PAGN Reporting Station
Overcast Overcast  
Wind Chill: 38°   Ceiling: 4100
Heat Index: 43°   Visibility: 10mi
Dew Point: 41°   Wind: 8mph
Humidity: 93%   Direction: 70°ENE
Pressure: 29.85"   Gusts: NA
Location:  57.5°N, 134.59°W
Report Text: PAGN 250456Z AUTO 07007KT 10SM OVC041 06/05 A2985 RMK AO2 TSNO T00610050 OVC V BKN SLP111 $
Loading
Personal Weather Stations






























Interactive Weather Map
Tropical Storm Tracking
New forecast layout! Learn more

10-Day Weather Forecast

Advertisements
Track Severe Weather on mobile